Time;durP1;ratioP1;P1;durP2;ratioP2;P2;SDS_P1;SDS_P2;PMS_P1;PMS_P2;Temp;Humidity;BMP_temperature;BMP_pressure;BME280_temperature;BME280_humidity;BME280_pressure;Samples;Min_cycle;Max_cycle;Signal;HPM_P1;HPM_P2
2022/12/01 00:02:20;;;;;;;1.00;0.80;;;;;;;5.46;91.02;95023.28;5053027;28;20414;-77
2022/12/01 00:04:47;;;;;;;0.90;0.90;;;;;;;5.49;90.54;95028.16;5071104;28;20401;-75
2022/12/01 00:07:13;;;;;;;0.90;0.80;;;;;;;5.35;91.21;95023.72;5069843;28;20951;-74
2022/12/01 00:12:22;;;;;;;1.40;0.80;;;;;;;5.32;90.88;95004.78;5062994;28;20433;-76
2022/12/01 00:14:53;;;;;;;1.27;0.80;;;;;;;5.47;90.88;95024.91;5064958;28;20429;-76
2022/12/01 00:17:19;;;;;;;1.70;0.95;;;;;;;5.39;90.85;95033.59;5066924;28;20416;-77
2022/12/01 00:19:45;;;;;;;0.75;0.75;;;;;;;5.43;90.70;95021.03;5064843;28;20429;-76
2022/12/01 00:22:10;;;;;;;0.97;0.70;;;;;;;5.47;90.70;95030.94;5062972;28;20429;-76
2022/12/01 00:24:36;;;;;;;1.10;0.80;;;;;;;5.46;90.05;95011.03;5063881;28;20944;-76
2022/12/01 00:27:01;;;;;;;2.05;0.82;;;;;;;5.30;89.89;95008.56;5063630;28;20436;-77
2022/12/01 00:29:27;;;;;;;0.70;0.70;;;;;;;5.26;90.29;95009.91;5066364;28;20555;-76
2022/12/01 00:31:52;;;;;;;1.17;0.83;;;;;;;5.27;90.55;95001.09;5065594;28;20847;-76
2022/12/01 00:34:23;;;;;;;1.20;1.00;;;;;;;5.59;89.71;95032.16;5062810;28;20823;-76
2022/12/01 00:36:50;;;;;;;1.88;0.90;;;;;;;5.54;89.52;95036.25;5066054;28;20441;-76
2022/12/01 00:39:16;;;;;;;1.45;0.70;;;;;;;5.46;89.23;95015.44;5066053;28;20445;-76
2022/12/01 00:41:41;;;;;;;1.75;0.70;;;;;;;5.55;89.35;95033.47;5068706;28;20414;-76
2022/12/01 00:44:07;;;;;;;0.90;0.70;;;;;;;5.57;89.26;95028.09;5064165;28;20486;-75
2022/12/01 00:46:32;;;;;;;0.70;0.60;;;;;;;5.39;89.35;94991.84;5067287;28;20452;-75
2022/12/01 00:48:58;;;;;;;1.07;0.90;;;;;;;5.68;88.83;95035.50;5062509;28;20417;-75
2022/12/01 00:51:23;;;;;;;1.07;0.90;;;;;;;5.46;89.19;95008.44;5065254;28;20480;-76
2022/12/01 00:53:49;;;;;;;1.07;0.90;;;;;;;5.46;89.58;95018.88;5068376;28;20474;-76
2022/12/01 00:56:14;;;;;;;2.43;1.00;;;;;;;5.34;90.21;95002.00;5062639;28;20438;-76
2022/12/01 00:58:39;;;;;;;2.30;1.10;;;;;;;5.46;89.87;95024.09;5062348;28;20436;-75
2022/12/01 01:01:05;;;;;;;1.30;0.90;;;;;;;5.49;89.79;95015.09;5065574;28;20499;-75
2022/12/01 01:03:32;;;;;;;1.15;1.02;;;;;;;5.43;89.67;95016.63;5068625;28;20410;-75
2022/12/01 01:06:09;;;;;;;1.75;1.20;;;;;;;5.43;89.94;95014.00;5050664;28;21180;-75
2022/12/01 01:08:35;;;;;;;0.87;0.77;;;;;;;5.47;90.35;95022.28;5027929;28;1163548;-77
2022/12/01 01:11:01;;;;;;;1.10;0.80;;;;;;;5.30;90.48;94995.50;5070270;28;20243;-77
2022/12/01 01:13:27;;;;;;;1.40;0.93;;;;;;;5.36;90.92;94999.25;5068522;28;20425;-76
2022/12/01 01:16:00;;;;;;;3.50;1.10;;;;;;;5.32;91.01;95003.97;5069425;28;20474;-77
2022/12/01 01:18:26;;;;;;;1.48;0.95;;;;;;;5.45;91.21;95008.63;5067619;28;20410;-76
2022/12/01 01:20:59;;;;;;;0.88;0.80;;;;;;;5.45;91.08;95006.03;5057691;28;20871;-76
2022/12/01 01:23:25;;;;;;;2.20;1.00;;;;;;;5.38;91.20;94976.34;5064011;28;20418;-76
2022/12/01 01:25:51;;;;;;;1.37;1.03;;;;;;;5.56;90.37;95006.38;5057934;28;20433;-76
2022/12/01 01:28:17;;;;;;;2.00;1.17;;;;;;;5.55;90.69;94994.31;5068102;28;20425;-76
2022/12/01 01:30:42;;;;;;;2.00;1.00;;;;;;;5.34;91.33;94991.56;5068850;28;20501;-76
2022/12/01 01:33:08;;;;;;;2.10;1.10;;;;;;;5.29;91.27;94973.81;5068931;28;20442;-76
2022/12/01 01:35:33;;;;;;;2.10;1.10;;;;;;;5.46;90.92;94997.16;5068902;28;20406;-76
2022/12/01 01:37:59;;;;;;;1.48;1.00;;;;;;;5.48;90.82;94997.81;5069136;28;20475;-76
2022/12/01 01:40:24;;;;;;;1.20;0.80;;;;;;;5.40;89.97;94974.38;5068845;28;20417;-75
2022/12/01 01:42:49;;;;;;;1.35;0.90;;;;;;;5.34;90.40;94978.53;5068289;28;20455;-75
2022/12/01 01:45:24;;;;;;;0.70;0.60;;;;;;;5.45;90.65;94987.75;5050847;28;20418;-75
2022/12/01 01:47:51;;;;;;;0.73;0.73;;;;;;;5.38;90.42;94955.47;5068852;28;20445;-76
2022/12/01 01:50:21;;;;;;;1.33;0.75;;;;;;;5.42;90.55;94982.88;5069713;28;20413;-76
2022/12/01 01:53:00;;;;;;;0.60;0.60;;;;;;;5.38;90.76;94966.72;5068676;28;20437;-75
2022/12/01 01:55:28;;;;;;;1.10;0.70;;;;;;;5.27;91.19;94967.16;5051709;28;20422;-75
2022/12/01 01:57:53;;;;;;;0.75;0.60;;;;;;;5.37;91.23;94962.50;5068652;28;20456;-75
2022/12/01 02:00:20;;;;;;;0.75;0.50;;;;;;;5.48;91.17;94972.53;5068620;28;21276;-76
2022/12/01 02:02:47;;;;;;;0.63;0.63;;;;;;;5.44;90.46;94942.56;5067141;28;20444;-76
2022/12/01 02:05:22;;;;;;;0.60;0.60;;;;;;;5.66;89.87;94970.41;5068637;28;20521;-76
2022/12/01 02:07:50;;;;;;;0.70;0.57;;;;;;;5.58;90.07;94970.47;5068572;28;20433;-76
2022/12/01 02:10:21;;;;;;;0.80;0.70;;;;;;;5.47;90.78;94973.50;5068596;28;20418;-76
2022/12/01 02:13:01;;;;;;;0.67;0.67;;;;;;;5.40;91.29;94953.50;5068336;28;20546;-76
2022/12/01 02:15:42;;;;;;;0.80;0.80;;;;;;;5.29;91.08;94945.09;5068292;28;20498;-76
2022/12/01 02:18:26;;;;;;;1.20;0.93;;;;;;;5.45;90.40;94966.88;5068519;28;20423;-75
2022/12/01 02:21:21;;;;;;;1.00;0.80;;;;;;;5.25;90.35;94951.69;5065129;28;20471;-76
2022/12/01 02:24:04;;;;;;;0.70;0.70;;;;;;;5.33;90.34;94958.63;5069892;28;20471;-76
2022/12/01 02:26:53;;;;;;;0.80;0.70;;;;;;;5.24;89.93;94972.72;5071942;28;20422;-76
2022/12/01 02:29:37;;;;;;;0.97;0.80;;;;;;;5.18;90.48;94969.03;5072056;28;20920;-75
2022/12/01 02:32:22;;;;;;;1.35;0.60;;;;;;;5.13;90.16;94940.03;5072243;28;20834;-76
2022/12/01 02:34:47;;;;;;;0.70;0.60;;;;;;;5.22;90.35;94956.44;5071593;28;20433;-76
2022/12/01 02:37:19;;;;;;;0.80;0.50;;;;;;;5.07;90.11;94929.50;5072031;28;20765;-76
2022/12/01 02:40:32;;;;;;;1.63;0.80;;;;;;;5.24;90.48;94946.63;5071858;28;20492;-76
2022/12/01 02:43:08;;;;;;;0.93;0.80;;;;;;;5.17;90.83;94933.47;4990503;28;20440;-76
2022/12/01 02:45:49;;;;;;;2.20;1.05;;;;;;;5.13;90.94;94947.03;5060192;28;20994;-76
2022/12/01 02:48:38;;;;;;;1.88;1.20;;;;;;;5.24;90.88;94964.91;5055162;28;20428;-76
2022/12/01 02:51:28;;;;;;;1.85;1.30;;;;;;;5.28;91.06;94955.72;5053137;28;21028;-76
2022/12/01 02:53:55;;;;;;;2.47;1.35;;;;;;;5.32;90.99;94954.41;5071485;28;20836;-76
2022/12/01 02:56:22;;;;;;;2.53;1.40;;;;;;;5.15;91.47;94924.19;5071642;28;20808;-76
2022/12/01 02:58:48;;;;;;;1.60;1.08;;;;;;;5.29;91.21;94954.72;5071281;28;20445;-75
2022/12/01 03:01:45;;;;;;;1.45;1.08;;;;;;;5.17;91.53;94961.38;5053599;28;20413;-76
2022/12/01 03:04:37;;;;;;;2.00;1.30;;;;;;;5.05;91.89;94940.09;5072164;28;20413;-75
2022/12/01 03:07:56;;;;;;;2.30;1.10;;;;;;;5.24;91.71;94963.09;5071795;28;20502;-75
2022/12/01 03:10:24;;;;;;;1.35;1.00;;;;;;;5.18;91.87;94958.59;4999732;28;20428;-75
2022/12/01 03:13:34;;;;;;;1.27;1.00;;;;;;;5.10;91.84;94956.00;5069819;28;20493;-75
2022/12/01 03:16:15;;;;;;;1.52;1.20;;;;;;;5.12;92.54;94959.28;5005149;28;20497;-76
2022/12/01 03:18:51;;;;;;;1.17;1.00;;;;;;;5.07;92.12;94950.34;5066294;28;20512;-74
2022/12/01 03:21:30;;;;;;;1.20;0.90;;;;;;;5.04;92.70;94948.09;5070980;28;20420;-76
2022/12/01 03:24:19;;;;;;;1.13;0.90;;;;;;;5.03;92.76;94947.28;5071211;28;20412;-75
2022/12/01 03:26:48;;;;;;;0.93;0.90;;;;;;;5.10;92.29;94952.63;5069681;28;20904;-76
2022/12/01 03:29:45;;;;;;;1.27;1.13;;;;;;;5.00;92.03;94942.44;5070855;28;20402;-76
2022/12/01 03:32:42;;;;;;;1.75;0.93;;;;;;;5.10;92.19;94957.84;5049247;28;20418;-76
2022/12/01 03:35:15;;;;;;;2.03;0.90;;;;;;;5.10;91.81;94935.16;5041706;28;20448;-76
2022/12/01 03:37:47;;;;;;;1.05;0.90;;;;;;;5.02;92.02;94932.59;5069172;28;20840;-76
2022/12/01 03:40:17;;;;;;;1.55;1.00;;;;;;;5.13;92.43;94947.84;5069727;28;20421;-76
2022/12/01 03:42:46;;;;;;;1.10;1.00;;;;;;;5.07;91.86;94929.50;5070187;28;20417;-76
2022/12/01 03:45:21;;;;;;;2.90;1.20;;;;;;;5.12;92.25;94935.78;5070332;28;20401;-76
2022/12/01 03:47:46;;;;;;;1.20;1.00;;;;;;;5.13;92.36;94929.59;5052641;28;20410;-75
2022/12/01 03:50:13;;;;;;;2.30;1.00;;;;;;;4.89;92.75;94914.94;5070216;28;20471;-75
2022/12/01 03:52:53;;;;;;;1.75;0.90;;;;;;;5.06;92.77;94936.50;5070495;28;20409;-76
2022/12/01 03:55:27;;;;;;;1.38;1.20;;;;;;;5.12;91.90;94937.59;5070157;28;20935;-76
2022/12/01 03:57:55;;;;;;;2.08;1.10;;;;;;;4.99;92.01;94937.38;5052590;28;20413;-75
2022/12/01 04:00:22;;;;;;;1.33;1.17;;;;;;;4.91;92.95;94939.06;5071381;28;20410;-75
2022/12/01 04:02:47;;;;;;;1.70;1.20;;;;;;;4.88;92.99;94934.19;5069919;28;20856;-76
2022/12/01 04:05:13;;;;;;;1.38;1.10;;;;;;;5.07;92.86;94960.78;5070473;28;20445;-76
2022/12/01 04:07:39;;;;;;;1.52;1.10;;;;;;;4.97;92.64;94952.38;5070372;28;20441;-76
2022/12/01 04:10:05;;;;;;;1.13;1.03;;;;;;;5.03;93.22;94951.69;5070808;28;20455;-76
2022/12/01 04:12:34;;;;;;;1.13;1.03;;;;;;;4.89;93.07;94941.03;5070308;28;20428;-76
2022/12/01 04:15:03;;;;;;;1.33;1.17;;;;;;;4.83;93.62;94939.13;5069744;28;20660;-76
2022/12/01 04:17:29;;;;;;;2.17;1.10;;;;;;;4.86;93.65;94957.00;5051985;28;20777;-75
2022/12/01 04:19:54;;;;;;;1.80;1.20;;;;;;;4.75;94.05;94954.81;5070072;28;20420;-75
2022/12/01 04:22:20;;;;;;;1.20;1.10;;;;;;;4.72;94.68;94959.56;5070494;28;20486;-75
2022/12/01 04:24:46;;;;;;;1.45;1.10;;;;;;;4.67;95.08;94941.03;5052174;28;20425;-75
2022/12/01 04:27:11;;;;;;;1.30;1.17;;;;;;;4.31;94.80;94880.81;5069783;28;20417;-75
2022/12/01 04:29:37;;;;;;;1.30;1.20;;;;;;;4.82;95.18;94975.78;5069878;28;20425;-75
2022/12/01 04:32:02;;;;;;;1.77;1.00;;;;;;;4.63;95.12;94974.44;5069873;28;20397;-77
2022/12/01 04:34:28;;;;;;;1.27;1.00;;;;;;;4.60;95.20;94948.69;5070382;28;20426;-76
2022/12/01 04:36:54;;;;;;;1.40;1.20;;;;;;;4.64;94.74;94960.41;5051636;28;20431;-77
2022/12/01 04:39:19;;;;;;;4.17;1.50;;;;;;;4.51;94.96;94958.34;5069498;28;20421;-75
2022/12/01 04:41:45;;;;;;;2.00;1.10;;;;;;;4.46;95.45;94963.28;5069798;28;20420;-75
2022/12/01 04:44:10;;;;;;;1.95;1.05;;;;;;;4.53;95.45;94961.59;5068898;28;20776;-75
2022/12/01 04:46:36;;;;;;;4.40;1.37;;;;;;;4.58;95.66;94981.16;5069849;28;20410;-75
2022/12/01 04:49:03;;;;;;;2.55;1.15;;;;;;;4.49;95.45;94975.16;5069220;28;20508;-75
2022/12/01 04:51:28;;;;;;;1.77;1.38;;;;;;;4.43;96.41;94971.44;5069569;28;20424;-75
2022/12/01 04:53:54;;;;;;;1.60;1.27;;;;;;;4.31;96.73;94961.56;5068516;28;20426;-75
2022/12/01 04:56:19;;;;;;;1.43;1.33;;;;;;;4.33;96.77;94975.22;5069295;28;20555;-75
2022/12/01 04:58:45;;;;;;;1.23;1.13;;;;;;;4.29;96.54;94979.97;5069109;28;20424;-75
2022/12/01 05:01:12;;;;;;;1.50;1.30;;;;;;;4.25;97.34;94970.03;5069557;28;20462;-75
2022/12/01 05:03:39;;;;;;;1.38;1.27;;;;;;;4.18;98.01;94977.72;5069925;28;20424;-76
2022/12/01 05:06:10;;;;;;;2.35;1.40;;;;;;;4.18;98.20;94973.31;5069857;28;20429;-76
2022/12/01 05:08:36;;;;;;;1.45;1.27;;;;;;;4.13;98.39;94973.03;5070090;28;20444;-76
2022/12/01 05:11:02;;;;;;;2.00;1.60;;;;;;;4.14;98.65;94961.63;5069098;28;20410;-76
2022/12/01 05:13:28;;;;;;;3.08;1.80;;;;;;;4.27;98.78;94973.28;5069067;28;20440;-77
2022/12/01 05:15:53;;;;;;;3.00;1.50;;;;;;;4.31;98.31;94972.81;5069894;28;20817;-76
2022/12/01 05:18:19;;;;;;;1.63;1.30;;;;;;;4.26;98.39;94961.25;5070140;28;20425;-75
2022/12/01 05:20:56;;;;;;;1.90;1.70;;;;;;;4.31;97.71;94967.59;5069190;28;20420;-76
2022/12/01 05:23:27;;;;;;;2.40;1.58;;;;;;;4.40;97.03;94979.59;5068922;28;20413;-74
2022/12/01 05:25:52;;;;;;;2.83;1.88;;;;;;;4.44;97.40;94980.88;5069370;28;20409;-75
2022/12/01 05:28:19;;;;;;;2.00;1.53;;;;;;;4.39;97.42;94977.16;5070215;28;20186;-75
2022/12/01 05:30:44;;;;;;;2.33;1.70;;;;;;;4.39;97.44;94984.97;5068791;28;20500;-75
2022/12/01 05:33:10;;;;;;;3.65;1.80;;;;;;;4.36;97.79;94975.69;5068876;28;20529;-74
2022/12/01 05:35:35;;;;;;;2.70;2.03;;;;;;;4.15;97.89;94952.81;5069506;28;20424;-75
2022/12/01 05:38:01;;;;;;;2.07;1.50;;;;;;;4.31;98.23;94980.63;5070631;28;20967;-75
2022/12/01 05:40:26;;;;;;;2.20;1.45;;;;;;;4.32;96.77;94978.84;5069037;28;20409;-75
2022/12/01 05:42:52;;;;;;;1.70;1.27;;;;;;;4.26;94.44;94992.50;5069135;28;20398;-75
2022/12/01 05:45:17;;;;;;;4.13;1.27;;;;;;;4.00;93.03;94953.69;5067760;28;20440;-75
2022/12/01 05:47:43;;;;;;;2.30;1.20;;;;;;;3.86;92.81;94941.38;5068855;28;21264;-75
2022/12/01 05:50:09;;;;;;;1.92;1.40;;;;;;;4.05;92.01;94982.66;5068709;28;20417;-75
2022/12/01 05:52:35;;;;;;;1.75;1.20;;;;;;;4.09;91.04;94991.75;5050729;28;20441;-74
2022/12/01 05:55:01;;;;;;;1.40;1.02;;;;;;;4.03;89.22;94995.84;5068599;28;20434;-75
2022/12/01 05:57:27;;;;;;;2.17;1.50;;;;;;;3.93;88.33;94978.78;5050973;28;20413;-75
2022/12/01 05:59:52;;;;;;;1.40;1.20;;;;;;;4.03;86.82;94992.44;5072105;28;20792;-75
2022/12/01 06:02:17;;;;;;;2.65;1.25;;;;;;;4.02;87.09;94985.59;5072248;28;20496;-75
2022/12/01 06:04:43;;;;;;;1.20;1.10;;;;;;;4.01;86.91;94978.75;5072407;28;20448;-75
2022/12/01 06:07:08;;;;;;;2.30;1.10;;;;;;;4.09;86.16;94997.78;5072401;28;20432;-75
2022/12/01 06:09:34;;;;;;;1.33;1.00;;;;;;;3.95;86.27;94987.25;5072560;28;20766;-75
2022/12/01 06:11:59;;;;;;;1.13;0.90;;;;;;;3.94;86.32;94981.22;5072228;28;20487;-75
2022/12/01 06:14:25;;;;;;;2.93;1.17;;;;;;;4.04;86.59;94988.84;5073092;28;20451;-75
2022/12/01 06:16:50;;;;;;;1.37;0.97;;;;;;;4.11;85.92;95001.03;5068641;28;20905;-75
2022/12/01 06:19:16;;;;;;;3.20;1.10;;;;;;;3.89;86.71;94982.72;5067679;28;20805;-75
2022/12/01 06:21:41;;;;;;;1.77;1.20;;;;;;;3.91;87.11;95004.97;5070213;28;20429;-75
2022/12/01 06:24:06;;;;;;;1.13;1.02;;;;;;;3.89;86.70;94998.34;5069747;28;20465;-75
2022/12/01 06:26:32;;;;;;;1.27;0.88;;;;;;;3.94;86.59;95007.28;5067109;28;20761;-74
2022/12/01 06:28:57;;;;;;;1.10;1.00;;;;;;;3.94;86.59;94991.66;5071631;28;20492;-74
2022/12/01 06:31:23;;;;;;;0.73;0.73;;;;;;;3.91;87.29;94981.56;5071947;28;20788;-74
2022/12/01 06:33:48;;;;;;;1.60;0.90;;;;;;;4.03;87.02;94995.03;5070141;28;20433;-74
2022/12/01 06:36:13;;;;;;;1.50;1.23;;;;;;;4.05;86.71;94988.69;5068010;28;20472;-75
2022/12/01 06:38:39;;;;;;;1.37;1.10;;;;;;;4.03;87.46;94990.66;5069342;28;20437;-75
2022/12/01 06:41:05;;;;;;;1.40;1.30;;;;;;;4.05;87.22;94988.69;5071260;28;20483;-75
2022/12/01 06:43:30;;;;;;;2.67;1.83;;;;;;;4.06;87.77;94976.47;5070080;28;20430;-74
2022/12/01 06:45:56;;;;;;;1.85;1.40;;;;;;;4.18;87.66;94980.34;5067617;28;20437;-75
2022/12/01 06:48:21;;;;;;;3.40;1.40;;;;;;;4.28;88.09;94986.16;5056493;28;20434;-77
2022/12/01 06:50:47;;;;;;;3.43;2.13;;;;;;;4.35;88.01;94988.91;5008772;28;20292;-76
2022/12/01 06:53:12;;;;;;;3.70;2.00;;;;;;;4.42;87.36;95002.88;5012570;28;20916;-75
2022/12/01 06:55:38;;;;;;;2.87;1.70;;;;;;;4.44;87.01;94995.69;5011568;28;20426;-74
2022/12/01 06:58:05;;;;;;;1.47;1.27;;;;;;;4.43;86.85;94994.06;5012474;28;20184;-75
2022/12/01 07:00:30;;;;;;;3.28;1.90;;;;;;;4.39;86.18;94977.16;5011117;28;20453;-76
2022/12/01 07:02:56;;;;;;;2.53;1.80;;;;;;;4.42;86.68;94987.22;5011956;28;20454;-75
2022/12/01 07:05:21;;;;;;;2.47;1.58;;;;;;;4.37;87.45;94990.34;5011460;28;20514;-75
2022/12/01 07:07:46;;;;;;;5.20;1.67;;;;;;;4.41;87.92;94993.44;5010891;28;20464;-75
2022/12/01 07:10:12;;;;;;;2.93;1.50;;;;;;;4.36;87.38;94998.34;5010985;28;20406;-75
2022/12/01 07:12:38;;;;;;;2.45;1.80;;;;;;;4.32;87.98;94994.47;5010968;28;20456;-75
2022/12/01 07:15:06;;;;;;;4.03;1.95;;;;;;;4.27;88.14;95002.78;5010683;28;20438;-74
2022/12/01 07:17:32;;;;;;;6.13;2.25;;;;;;;4.20;88.79;94994.00;5010738;28;20921;-75
2022/12/01 07:19:58;;;;;;;4.13;2.47;;;;;;;4.18;88.52;94998.56;5010909;28;20834;-75
2022/12/01 07:22:23;;;;;;;5.17;2.83;;;;;;;4.20;89.17;94993.19;5009559;28;20430;-75
2022/12/01 07:24:49;;;;;;;5.80;2.90;;;;;;;4.25;89.40;94990.88;5009041;28;20430;-74
2022/12/01 07:27:14;;;;;;;5.35;3.00;;;;;;;4.24;89.31;94997.09;5009792;28;20984;-74
2022/12/01 07:29:39;;;;;;;3.87;2.30;;;;;;;4.31;89.82;94995.44;5009968;28;20211;-75
2022/12/01 07:32:05;;;;;;;5.30;2.40;;;;;;;4.29;89.54;94995.59;5008219;28;21009;-75
2022/12/01 07:34:30;;;;;;;5.03;2.70;;;;;;;4.31;90.09;95003.25;5007458;28;20453;-75
2022/12/01 07:36:56;;;;;;;4.30;2.30;;;;;;;4.32;90.38;94997.88;5008024;28;20533;-75
2022/12/01 07:39:21;;;;;;;3.27;2.40;;;;;;;4.25;90.96;95006.50;5006861;28;20445;-75
2022/12/01 07:41:46;;;;;;;4.33;2.37;;;;;;;4.20;90.73;94994.00;5008102;28;20880;-75
2022/12/01 07:44:12;;;;;;;4.07;2.47;;;;;;;4.23;91.48;94998.06;5005165;28;20459;-76
2022/12/01 07:46:37;;;;;;;4.63;2.43;;;;;;;4.04;92.02;94975.84;5022112;28;20460;-75
2022/12/01 07:49:09;;;;;;;4.63;2.33;;;;;;;4.12;92.59;94989.63;5008220;28;20438;-76
2022/12/01 07:51:34;;;;;;;4.10;2.10;;;;;;;4.02;93.15;94993.41;5009333;28;20943;-74
2022/12/01 07:54:02;;;;;;;5.53;2.30;;;;;;;4.07;93.14;94994.53;5007079;28;20442;-74
2022/12/01 07:56:27;;;;;;;2.90;2.47;;;;;;;3.99;93.45;94994.53;5005439;28;20192;-74
2022/12/01 07:58:53;;;;;;;6.17;2.50;;;;;;;3.89;93.78;94980.94;5023961;28;20254;-75
2022/12/01 08:01:21;;;;;;;4.33;2.30;;;;;;;3.95;94.28;94985.47;5006897;28;20187;-74
2022/12/01 08:03:48;;;;;;;5.30;2.63;;;;;;;4.02;94.60;94983.00;5004306;28;22140;-74
2022/12/01 08:06:14;;;;;;;4.17;2.63;;;;;;;3.97;94.57;94974.88;5006882;28;20490;-75
2022/12/01 08:08:40;;;;;;;6.65;2.92;;;;;;;3.97;94.83;94978.31;5008425;28;20449;-75
2022/12/01 08:11:10;;;;;;;3.87;2.83;;;;;;;4.02;95.21;94968.19;5006967;28;20636;-75
2022/12/01 08:13:36;;;;;;;4.67;2.43;;;;;;;4.11;95.33;94989.81;5005558;28;20295;-76
2022/12/01 08:16:03;;;;;;;4.27;2.07;;;;;;;4.03;95.38;94967.22;5007717;28;20267;-78
2022/12/01 08:18:29;;;;;;;3.97;1.90;;;;;;;4.12;95.80;94994.03;5011093;28;20218;-76
2022/12/01 08:20:57;;;;;;;6.00;2.60;;;;;;;4.17;95.80;94994.34;5010105;28;20188;-76
2022/12/01 08:23:23;;;;;;;5.13;2.23;;;;;;;4.12;96.02;94989.63;5010406;28;20180;-75
2022/12/01 08:25:48;;;;;;;4.53;2.50;;;;;;;4.08;96.58;94974.50;5010917;28;20267;-75
2022/12/01 08:28:14;;;;;;;6.43;2.37;;;;;;;4.06;96.50;94973.88;5010431;28;20181;-75
2022/12/01 08:30:39;;;;;;;3.33;2.53;;;;;;;4.20;96.45;95004.44;5010730;28;20181;-75
2022/12/01 08:33:05;;;;;;;5.47;2.37;;;;;;;4.17;96.78;94997.75;5010763;28;20195;-77
2022/12/01 08:35:31;;;;;;;4.77;2.57;;;;;;;4.23;96.62;95004.09;5015960;28;20430;-75
2022/12/01 08:37:56;;;;;;;4.43;2.45;;;;;;;4.10;96.64;94989.00;5009615;28;20448;-76
2022/12/01 08:40:22;;;;;;;4.18;2.45;;;;;;;4.17;96.73;94992.53;5008959;28;20434;-77
2022/12/01 08:42:47;;;;;;;4.60;2.77;;;;;;;4.32;96.57;94992.66;5010987;28;20172;-75
2022/12/01 08:45:13;;;;;;;3.33;1.90;;;;;;;4.35;96.19;95000.13;5009756;28;20279;-76
2022/12/01 08:47:38;;;;;;;3.57;2.13;;;;;;;4.27;96.25;94996.75;5010102;28;20461;-76
2022/12/01 08:50:05;;;;;;;2.63;1.97;;;;;;;4.14;96.27;94976.44;5010786;28;20242;-74
2022/12/01 08:52:34;;;;;;;2.70;1.90;;;;;;;4.11;95.84;94971.56;5010652;28;20219;-76
2022/12/01 08:55:00;;;;;;;4.10;2.40;;;;;;;4.16;96.27;94985.69;5010265;28;20579;-75
2022/12/01 08:57:28;;;;;;;5.53;2.90;;;;;;;4.06;96.54;94966.06;5009895;28;20263;-76
2022/12/01 08:59:54;;;;;;;6.50;2.40;;;;;;;4.11;96.65;94988.00;5008689;28;20181;-75
2022/12/01 09:02:22;;;;;;;2.93;2.27;;;;;;;4.06;96.68;94992.13;5009515;28;20188;-76
2022/12/01 09:04:51;;;;;;;4.22;2.70;;;;;;;4.02;97.06;94975.19;5008803;28;20445;-75
2022/12/01 09:07:18;;;;;;;6.80;2.37;;;;;;;4.03;97.33;94971.59;5010163;28;20228;-74
2022/12/01 09:09:44;;;;;;;4.83;2.83;;;;;;;4.14;96.66;94979.88;5009762;28;20174;-75
2022/12/01 09:12:11;;;;;;;6.43;2.87;;;;;;;4.04;96.95;94976.66;5010332;28;20184;-75
2022/12/01 09:14:41;;;;;;;3.30;2.17;;;;;;;4.10;97.27;94965.53;5008584;28;20215;-75
2022/12/01 09:17:08;;;;;;;4.17;2.67;;;;;;;4.28;96.98;94982.75;5009085;28;20188;-74
2022/12/01 09:19:34;;;;;;;6.20;2.70;;;;;;;4.33;96.63;94989.06;5010270;28;20176;-74
2022/12/01 09:21:59;;;;;;;6.57;3.37;;;;;;;4.28;96.14;94980.94;5010131;28;20188;-75
2022/12/01 09:24:25;;;;;;;5.13;3.30;;;;;;;4.39;96.92;94977.16;5010347;28;20172;-75
2022/12/01 09:26:54;;;;;;;5.80;3.63;;;;;;;4.33;96.73;94963.00;5010158;28;20219;-75
2022/12/01 09:29:20;;;;;;;6.43;3.60;;;;;;;4.36;96.28;94954.84;5010134;28;20180;-75
2022/12/01 09:31:45;;;;;;;6.63;3.80;;;;;;;4.51;95.72;94971.38;5010090;28;20180;-75
2022/12/01 09:34:14;;;;;;;4.70;3.13;;;;;;;4.47;95.77;94966.69;5012690;28;20226;-75
2022/12/01 09:36:40;;;;;;;3.73;2.60;;;;;;;4.50;95.85;94966.34;5014052;28;20687;-75
2022/12/01 09:39:07;;;;;;;5.27;2.80;;;;;;;4.54;96.72;94967.63;5014131;28;20195;-76
2022/12/01 09:41:41;;;;;;;5.30;2.87;;;;;;;4.61;96.66;94963.34;5014456;28;20169;-76
2022/12/01 09:44:13;;;;;;;6.10;2.67;;;;;;;4.73;96.20;94956.78;5014241;28;20175;-76
2022/12/01 09:46:50;;;;;;;6.43;2.80;;;;;;;4.69;94.91;94965.91;5029218;28;20176;-75
2022/12/01 09:49:21;;;;;;;3.97;2.20;;;;;;;4.49;94.38;94946.50;5014026;28;20195;-76
2022/12/01 09:51:58;;;;;;;5.53;3.00;;;;;;;4.48;93.21;94953.50;5027235;28;20185;-74
2022/12/01 09:54:24;;;;;;;3.20;2.23;;;;;;;4.42;92.35;94938.53;5014962;28;20208;-75
2022/12/01 09:56:52;;;;;;;2.97;2.13;;;;;;;4.57;92.15;94963.88;5012964;28;20778;-75
2022/12/01 09:59:25;;;;;;;4.23;2.40;;;;;;;4.49;92.27;94956.94;5013545;28;20242;-75
2022/12/01 10:01:55;;;;;;;2.37;1.70;;;;;;;4.43;91.99;94941.94;5013703;28;20187;-76
2022/12/01 10:04:21;;;;;;;2.93;2.03;;;;;;;4.49;91.31;94928.25;5013410;28;20184;-77
2022/12/01 10:07:13;;;;;;;3.77;2.40;;;;;;;4.64;91.16;94952.59;5012976;28;20238;-75
2022/12/01 10:10:05;;;;;;;13.07;7.03;;;;;;;4.62;90.63;94951.13;5010284;28;20184;-75
2022/12/01 10:12:34;;;;;;;2.07;1.50;;;;;;;4.44;89.79;94922.72;5010418;28;20187;-76
2022/12/01 10:15:14;;;;;;;2.70;1.77;;;;;;;4.67;88.50;94946.25;5013780;28;20287;-76
2022/12/01 10:17:48;;;;;;;2.30;1.65;;;;;;;4.63;88.42;94948.38;5012161;28;20430;-77
2022/12/01 10:20:51;;;;;;;2.53;1.42;;;;;;;4.67;86.33;94952.22;5004137;28;20540;-75
2022/12/01 10:23:38;;;;;;;1.73;1.40;;;;;;;4.78;85.48;94946.63;4990378;28;20467;-76
2022/12/01 10:26:13;;;;;;;1.90;1.42;;;;;;;4.78;84.43;94943.22;4989917;28;20436;-75
2022/12/01 10:28:51;;;;;;;2.88;1.58;;;;;;;4.83;82.97;94954.78;5005112;28;20452;-77
2022/12/01 10:31:43;;;;;;;2.00;1.48;;;;;;;4.78;82.13;94943.22;5011871;28;20978;-79
2022/12/01 10:34:16;;;;;;;2.13;1.40;;;;;;;4.81;81.83;94948.91;5010016;28;20441;-75
2022/12/01 10:36:41;;;;;;;2.90;1.30;;;;;;;4.69;82.20;94944.25;5012000;28;20809;-76
2022/12/01 10:39:18;;;;;;;2.20;1.20;;;;;;;4.76;83.21;94955.59;5010676;28;20434;-74
2022/12/01 10:41:46;;;;;;;3.08;1.40;;;;;;;4.66;82.43;94950.63;5012378;28;20415;-75
2022/12/01 10:44:12;;;;;;;2.63;1.50;;;;;;;4.65;81.96;94938.59;5010120;28;20186;-75
2022/12/01 10:46:53;;;;;;;2.13;1.27;;;;;;;4.63;81.99;94930.13;5008101;28;20481;-75
2022/12/01 10:49:19;;;;;;;1.35;1.00;;;;;;;4.69;81.44;94952.06;5007951;28;20442;-78
2022/12/01 10:51:54;;;;;;;2.43;1.30;;;;;;;4.62;81.15;94949.34;5012017;28;20437;-75
2022/12/01 10:54:22;;;;;;;1.92;1.50;;;;;;;4.64;81.06;94947.38;5011518;28;20440;-74
2022/12/01 10:56:53;;;;;;;1.35;1.17;;;;;;;4.59;80.61;94944.47;5011478;28;20422;-74
2022/12/01 10:59:28;;;;;;;1.07;1.00;;;;;;;4.65;80.83;94943.78;5011191;28;20418;-74
2022/12/01 11:01:56;;;;;;;1.40;1.02;;;;;;;4.68;80.46;94942.63;5010136;28;20945;-73
2022/12/01 11:04:43;;;;;;;1.95;1.50;;;;;;;4.63;80.29;94956.19;5011058;28;20454;-74
2022/12/01 11:07:15;;;;;;;2.13;1.37;;;;;;;4.59;80.67;94923.59;5010472;28;20455;-76
2022/12/01 11:09:40;;;;;;;1.45;1.15;;;;;;;4.65;79.93;94941.19;5027675;28;20434;-76
2022/12/01 11:12:14;;;;;;;2.45;1.25;;;;;;;4.59;80.61;94939.25;5011737;28;20468;-76
2022/12/01 11:14:50;;;;;;;2.45;1.25;;;;;;;4.56;80.75;94939.63;5011761;28;20525;-76
2022/12/01 11:17:34;;;;;;;1.83;1.10;;;;;;;4.43;81.88;94908.88;5005117;28;20414;-76
2022/12/01 11:20:28;;;;;;;1.60;1.17;;;;;;;4.57;81.02;94936.03;5007638;28;20465;-76
2022/12/01 11:23:20;;;;;;;1.55;1.05;;;;;;;4.63;81.80;94932.72;5010636;28;20505;-76
2022/12/01 11:26:07;;;;;;;1.20;1.08;;;;;;;4.12;80.88;94854.19;5009309;28;20430;-76
2022/12/01 11:28:34;;;;;;;3.58;1.60;;;;;;;4.49;81.46;94926.47;4996481;28;20386;-75
2022/12/01 11:31:04;;;;;;;1.20;1.08;;;;;;;4.62;81.11;94940.72;5009633;28;20438;-74
2022/12/01 11:33:38;;;;;;;2.05;1.50;;;;;;;4.51;81.76;94932.28;5009425;28;20446;-78
2022/12/01 11:36:04;;;;;;;2.03;1.42;;;;;;;4.56;82.71;94934.41;5010421;28;20442;-75
2022/12/01 11:38:33;;;;;;;2.95;1.60;;;;;;;4.60;82.25;94930.44;5011301;28;20421;-75
2022/12/01 11:40:59;;;;;;;2.25;1.30;;;;;;;4.49;82.31;94913.44;5010380;28;20477;-77
2022/12/01 11:43:36;;;;;;;1.40;1.20;;;;;;;4.53;81.53;94932.13;5026073;28;20426;-76
2022/12/01 11:46:06;;;;;;;2.10;1.40;;;;;;;4.54;81.43;94933.75;5026290;28;20556;-76
2022/12/01 11:48:34;;;;;;;2.40;1.60;;;;;;;4.46;82.33;94925.97;5010818;28;20446;-76
2022/12/01 11:51:05;;;;;;;1.40;1.30;;;;;;;4.42;81.87;94922.09;5010126;28;20397;-75
2022/12/01 11:53:32;;;;;;;2.83;1.60;;;;;;;4.42;82.56;94933.31;5010156;28;20914;-76
2022/12/01 11:56:23;;;;;;;2.63;1.52;;;;;;;4.50;82.60;94933.28;5009504;28;20415;-78
2022/12/01 11:58:56;;;;;;;2.28;1.45;;;;;;;4.51;81.41;94928.88;5010183;28;20446;-75